createdAt,value
2017-09-11T00:01:15.481Z,76.99
2017-09-11T00:03:43.769Z,77.01
2017-09-11T00:06:12.057Z,77.19
2017-09-11T00:08:40.364Z,77.16
2017-09-11T00:11:08.649Z,77.02
2017-09-11T00:13:37.721Z,77.42
2017-09-11T00:16:06.029Z,77.52
2017-09-11T00:18:35.092Z,77.55
2017-09-11T00:21:03.381Z,77.79
2017-09-11T00:23:31.686Z,77.80
2017-09-11T00:26:00.738Z,77.78
2017-09-11T00:28:29.047Z,77.84
2017-09-11T00:30:58.107Z,78.09
2017-09-11T00:33:27.189Z,78.12
2017-09-11T00:35:55.472Z,78.29
2017-09-11T00:38:23.761Z,78.23
2017-09-11T00:40:52.068Z,78.51
2017-09-11T00:43:21.124Z,78.64
2017-09-11T00:45:49.416Z,78.53
2017-09-11T00:48:17.705Z,78.40
2017-09-11T00:50:46.774Z,78.13
2017-09-11T00:53:15.061Z,78.48
2017-09-11T00:55:43.384Z,78.47
2017-09-11T00:58:11.681Z,78.65
2017-09-11T01:00:39.977Z,79.14
2017-09-11T01:03:08.259Z,79.07
2017-09-11T01:05:36.579Z,79.04
2017-09-11T01:08:05.632Z,79.48
2017-09-11T01:10:33.928Z,79.70
2017-09-11T01:13:02.221Z,79.94
2017-09-11T01:15:31.293Z,80.11
2017-09-11T01:17:59.602Z,80.36
2017-09-11T01:20:27.894Z,80.47
2017-09-11T01:22:56.214Z,80.73
2017-09-11T01:25:25.317Z,80.79
2017-09-11T01:27:53.676Z,81.00
2017-09-11T01:30:21.960Z,80.94
2017-09-11T01:32:50.272Z,81.22
2017-09-11T01:35:19.432Z,81.17
2017-09-11T01:37:47.752Z,81.23
2017-09-11T01:40:16.812Z,81.07
2017-09-11T01:42:45.152Z,81.21
2017-09-11T01:45:13.469Z,81.41
2017-09-11T01:47:41.781Z,81.48
2017-09-11T01:50:10.086Z,81.43
2017-09-11T01:52:38.374Z,81.72
2017-09-11T01:55:06.676Z,81.56
2017-09-11T01:57:35.011Z,81.77
2017-09-11T02:00:03.300Z,81.93
2017-09-11T02:02:31.580Z,82.11
2017-09-11T02:04:59.877Z,82.53
2017-09-11T02:07:28.173Z,82.66
2017-09-11T02:09:56.493Z,82.77
2017-09-11T02:12:24.782Z,82.42
2017-09-11T02:14:53.064Z,82.12
2017-09-11T02:17:21.364Z,82.09
2017-09-11T02:19:49.653Z,82.01
2017-09-11T02:22:17.951Z,81.85
2017-09-11T02:24:47.012Z,81.70
2017-09-11T02:27:15.313Z,81.54
2017-09-11T02:29:44.371Z,81.46
2017-09-11T02:32:12.667Z,81.69
2017-09-11T02:34:40.971Z,81.93
2017-09-11T02:37:10.036Z,81.80
2017-09-11T02:39:38.315Z,81.89
2017-09-11T02:42:06.628Z,81.87
2017-09-11T02:44:35.684Z,81.98
2017-09-11T02:47:03.990Z,81.93
2017-09-11T02:49:33.059Z,81.92
2017-09-11T02:52:01.354Z,81.92
2017-09-11T02:54:30.421Z,82.00
2017-09-11T02:56:58.713Z,81.97
2017-09-11T02:59:27.018Z,81.90
2017-09-11T03:01:56.085Z,81.88
2017-09-11T03:04:24.380Z,81.90
2017-09-11T03:06:53.433Z,81.69
2017-09-11T03:09:21.801Z,81.75
2017-09-11T03:11:50.087Z,81.96
2017-09-11T03:14:18.417Z,82.30
2017-09-11T03:16:47.480Z,82.39
2017-09-11T03:19:15.781Z,82.40
2017-09-11T03:21:44.854Z,82.59
2017-09-11T03:24:13.181Z,82.69
2017-09-11T03:26:41.481Z,82.79
2017-09-11T03:29:09.785Z,82.57
2017-09-11T03:31:38.103Z,82.66
2017-09-11T03:34:06.393Z,82.71
2017-09-11T03:36:34.716Z,82.85
2017-09-11T03:39:03.010Z,83.17
2017-09-11T03:41:32.066Z,83.39
2017-09-11T03:44:00.356Z,83.64
2017-09-11T03:46:28.654Z,83.74
2017-09-11T03:48:57.716Z,83.95
2017-09-11T03:51:26.004Z,84.00
2017-09-11T03:53:54.309Z,84.01
2017-09-11T03:56:23.373Z,84.02
2017-09-11T03:58:51.696Z,83.94
2017-09-11T04:01:20.768Z,83.71
2017-09-11T04:03:49.824Z,83.03
2017-09-11T04:06:18.140Z,82.81
2017-09-11T04:08:46.425Z,82.52
2017-09-11T04:11:15.497Z,82.49
2017-09-11T04:13:43.810Z,82.59
2017-09-11T04:16:12.873Z,82.67
2017-09-11T04:18:41.167Z,82.72
2017-09-11T04:21:10.299Z,82.92
2017-09-11T04:23:38.580Z,83.00
2017-09-11T04:26:06.875Z,82.99
2017-09-11T04:28:35.193Z,83.10
2017-09-11T04:31:04.293Z,83.22
2017-09-11T04:33:33.348Z,83.22
2017-09-11T04:38:39.910Z,83.45
2017-09-11T04:41:08.235Z,83.49
2017-09-11T04:43:36.562Z,83.71
2017-09-11T04:46:04.857Z,83.83
2017-09-11T04:48:33.166Z,84.14
2017-09-11T04:51:01.466Z,84.12
2017-09-11T04:53:30.537Z,84.17
2017-09-11T04:55:58.833Z,84.28
2017-09-11T04:58:27.914Z,84.42
2017-09-11T05:00:56.239Z,84.51
2017-09-11T05:03:24.567Z,84.29
2017-09-11T05:05:52.862Z,84.07
2017-09-11T05:08:21.932Z,83.71
2017-09-11T05:10:50.230Z,83.03
2017-09-11T05:13:19.325Z,82.59
2017-09-11T05:15:48.390Z,81.99
2017-09-11T05:18:16.693Z,81.41
2017-09-11T05:20:45.793Z,81.09
2017-09-11T05:23:14.093Z,80.91
2017-09-11T05:25:42.395Z,80.37
2017-09-11T05:28:10.686Z,80.09
2017-09-11T05:30:39.030Z,79.39
2017-09-11T05:33:07.311Z,78.53
2017-09-11T05:35:35.621Z,77.37
2017-09-11T05:38:04.023Z,77.30
2017-09-11T05:40:32.373Z,76.88
2017-09-11T05:43:00.671Z,76.76
2017-09-11T05:45:29.765Z,76.52
2017-09-11T05:47:58.083Z,75.78
2017-09-11T05:50:26.382Z,75.61
2017-09-11T05:52:54.696Z,74.41
2017-09-11T05:55:22.999Z,74.04
2017-09-11T05:57:52.077Z,72.45
2017-09-11T06:00:21.143Z,71.89
2017-09-11T06:02:49.454Z,71.70
2017-09-11T06:05:18.529Z,71.33
2017-09-11T06:07:46.836Z,71.39
2017-09-11T06:10:15.923Z,71.09
2017-09-11T06:12:45.086Z,70.36
2017-09-11T06:15:13.477Z,70.08
2017-09-11T06:17:41.774Z,69.57
2017-09-11T06:20:10.842Z,69.67
2017-09-11T06:22:39.228Z,69.49
2017-09-11T06:25:07.608Z,68.78
2017-09-11T06:27:35.897Z,69.04
2017-09-11T06:30:04.201Z,68.57
2017-09-11T06:32:32.502Z,69.52
2017-09-11T06:35:00.809Z,69.18
2017-09-11T06:37:29.111Z,68.75
2017-09-11T06:39:58.207Z,68.68
2017-09-11T06:42:27.276Z,68.36
2017-09-11T06:44:55.569Z,69.05
2017-09-11T06:47:23.873Z,68.64
2017-09-11T06:49:52.182Z,68.73
2017-09-11T06:52:20.500Z,68.14
2017-09-11T06:54:48.819Z,68.78
2017-09-11T06:57:17.138Z,69.14
2017-09-11T06:59:45.443Z,69.18
2017-09-11T07:02:13.804Z,69.60
2017-09-11T07:04:42.876Z,69.58
2017-09-11T07:07:11.197Z,69.64
2017-09-11T07:09:40.258Z,70.12
2017-09-11T07:12:26.252Z,69.43
2017-09-11T07:14:54.550Z,69.58
2017-09-11T07:17:23.615Z,70.05
2017-09-11T07:19:51.917Z,69.19
2017-09-11T07:22:20.210Z,70.90
2017-09-11T07:24:49.287Z,72.24
2017-09-11T07:27:17.585Z,71.65
2017-09-11T07:29:46.657Z,71.79
2017-09-11T07:32:14.954Z,72.16
2017-09-11T07:34:44.025Z,72.63
2017-09-11T07:37:12.323Z,72.13
2017-09-11T07:39:41.419Z,71.78
2017-09-11T07:42:10.498Z,72.84
2017-09-11T07:44:38.799Z,73.36
2017-09-11T07:47:07.879Z,73.12
2017-09-11T07:49:36.174Z,73.62
2017-09-11T07:52:05.256Z,72.49
2017-09-11T07:54:34.325Z,73.35
2017-09-11T07:57:02.631Z,73.08
2017-09-11T07:59:31.703Z,73.05
2017-09-11T08:02:00.010Z,72.72
2017-09-11T08:04:29.078Z,72.73
2017-09-11T08:06:57.397Z,73.73
2017-09-11T08:09:25.693Z,73.51
2017-09-11T08:11:54.023Z,74.66
2017-09-11T08:14:22.330Z,76.08
2017-09-11T08:16:50.627Z,74.77
2017-09-11T08:19:18.934Z,74.55
2017-09-11T08:21:47.230Z,75.88
2017-09-11T08:24:15.538Z,74.81
2017-09-11T08:26:43.838Z,75.29
2017-09-11T08:29:12.138Z,73.22
2017-09-11T08:31:40.447Z,71.65
2017-09-11T08:34:09.530Z,70.99
2017-09-11T08:36:37.823Z,70.11
2017-09-11T08:39:06.913Z,70.66
2017-09-11T08:41:35.977Z,69.17
2017-09-11T08:44:04.269Z,70.82
2017-09-11T08:46:32.581Z,70.45
2017-09-11T08:49:00.878Z,70.87
2017-09-11T08:51:29.187Z,70.93
2017-09-11T08:53:57.479Z,69.26
2017-09-11T08:56:25.786Z,68.54
2017-09-11T08:58:54.846Z,69.23
2017-09-11T09:01:23.159Z,68.02
2017-09-11T09:03:51.456Z,67.90
2017-09-11T09:06:19.759Z,66.10
2017-09-11T09:08:48.058Z,67.91
2017-09-11T09:11:16.398Z,66.22
2017-09-11T09:13:44.689Z,66.37
2017-09-11T09:16:12.994Z,66.67
2017-09-11T09:18:41.297Z,65.78
2017-09-11T09:21:09.596Z,66.69
2017-09-11T09:23:37.901Z,66.55
2017-09-11T09:26:06.194Z,67.17
2017-09-11T09:28:35.274Z,66.66
2017-09-11T09:31:03.571Z,67.87
2017-09-11T09:33:31.874Z,68.38
2017-09-11T09:36:00.935Z,67.94
2017-09-11T09:38:29.271Z,68.22
2017-09-11T09:40:57.576Z,67.31
2017-09-11T09:43:25.870Z,66.46
2017-09-11T09:45:54.180Z,66.76
2017-09-11T09:48:22.488Z,67.23
2017-09-11T09:50:50.881Z,67.09
2017-09-11T09:53:19.961Z,67.24
2017-09-11T09:55:48.262Z,66.62
2017-09-11T09:58:16.554Z,66.71
2017-09-11T10:00:44.867Z,66.71
2017-09-11T10:03:13.166Z,66.70
2017-09-11T10:05:41.478Z,66.47
2017-09-11T10:08:09.778Z,67.09
2017-09-11T10:10:38.847Z,65.36
2017-09-11T10:13:07.154Z,65.08
2017-09-11T10:15:36.226Z,64.69
2017-09-11T10:18:04.530Z,65.63
2017-09-11T10:20:33.615Z,66.24
2017-09-11T10:23:02.714Z,65.40
2017-09-11T10:25:31.773Z,65.04
2017-09-11T10:28:00.065Z,64.20
2017-09-11T10:30:28.371Z,65.04
2017-09-11T10:32:57.431Z,64.55
2017-09-11T10:35:25.748Z,64.86
2017-09-11T10:37:54.070Z,65.00
2017-09-11T10:40:22.382Z,63.60
2017-09-11T10:42:51.441Z,63.95
2017-09-11T10:45:19.754Z,64.29
2017-09-11T10:47:48.822Z,62.71
2017-09-11T10:50:17.134Z,63.01
2017-09-11T10:52:46.202Z,63.11
2017-09-11T10:55:14.506Z,63.59
2017-09-11T10:57:43.663Z,63.47
2017-09-11T11:00:11.966Z,63.16
2017-09-11T11:02:41.045Z,62.88
2017-09-11T11:05:09.338Z,63.83
2017-09-11T11:07:38.405Z,63.38
2017-09-11T11:10:06.698Z,63.47
2017-09-11T11:12:35.030Z,62.95
2017-09-11T11:15:03.330Z,63.33
2017-09-11T11:17:31.618Z,62.74
2017-09-11T11:19:59.923Z,63.33
2017-09-11T11:22:28.982Z,63.46
2017-09-11T11:24:57.288Z,63.38
2017-09-11T11:27:26.354Z,63.93
2017-09-11T11:29:54.650Z,62.47
2017-09-11T11:32:22.945Z,61.98
2017-09-11T11:34:52.021Z,61.63
2017-09-11T11:37:20.319Z,62.68
2017-09-11T11:40:21.942Z,61.27
2017-09-11T11:42:50.252Z,61.42
2017-09-11T11:45:19.346Z,61.47
2017-09-11T11:47:47.641Z,61.01
2017-09-11T11:50:16.710Z,62.36
2017-09-11T11:52:45.027Z,61.58
2017-09-11T11:55:14.090Z,61.20
2017-09-11T11:57:43.161Z,61.77
2017-09-11T12:00:11.464Z,61.99
2017-09-11T12:02:40.535Z,61.57
2017-09-11T12:05:08.834Z,61.38
2017-09-11T12:07:37.926Z,61.01
2017-09-11T12:10:06.554Z,61.45
2017-09-11T12:12:34.850Z,60.59
2017-09-11T12:15:03.161Z,60.38
2017-09-11T12:17:31.457Z,61.04
2017-09-11T12:20:00.539Z,61.80
2017-09-11T12:22:29.601Z,62.22
2017-09-11T12:24:57.903Z,61.12
2017-09-11T12:27:26.214Z,61.13
2017-09-11T12:29:54.521Z,61.30
2017-09-11T12:32:22.827Z,59.26
2017-09-11T12:34:51.162Z,57.34
2017-09-11T12:37:20.046Z,56.71
2017-09-11T12:39:48.355Z,56.68
2017-09-11T12:42:16.686Z,56.94
2017-09-11T12:44:45.073Z,56.95
2017-09-11T12:47:13.374Z,57.34
2017-09-11T12:49:41.670Z,57.48
2017-09-11T12:52:10.000Z,58.67
2017-09-11T12:54:38.396Z,58.73
2017-09-11T12:57:06.725Z,60.31
2017-09-11T12:59:35.034Z,58.98
2017-09-11T13:02:03.343Z,58.93
2017-09-11T13:04:31.653Z,59.68
2017-09-11T13:06:59.946Z,60.23
2017-09-11T13:09:29.446Z,61.01
2017-09-11T13:11:58.513Z,60.88
2017-09-11T13:14:26.822Z,61.32
2017-09-11T13:16:55.890Z,61.15
2017-09-11T13:19:24.231Z,61.79
2017-09-11T13:21:52.540Z,61.93
2017-09-11T13:24:20.851Z,61.83
2017-09-11T13:26:49.933Z,61.42
2017-09-11T13:29:18.239Z,61.16
2017-09-11T13:31:46.550Z,61.96
2017-09-11T13:34:14.856Z,65.39
2017-09-11T13:36:43.187Z,68.22
2017-09-11T13:39:11.482Z,71.27
2017-09-11T13:41:39.786Z,71.46
2017-09-11T13:44:08.097Z,70.73
2017-09-11T13:46:37.163Z,69.64
2017-09-11T13:49:05.487Z,68.99
2017-09-11T13:51:33.803Z,66.79
2017-09-11T13:54:02.112Z,66.54
2017-09-11T13:56:31.199Z,67.30
2017-09-11T13:58:59.522Z,67.73
2017-09-11T14:01:27.825Z,67.38
2017-09-11T14:03:56.146Z,67.78
2017-09-11T14:06:25.215Z,67.81
2017-09-11T14:08:53.617Z,67.78
2017-09-11T14:11:22.683Z,68.50
2017-09-11T14:13:50.987Z,67.91
2017-09-11T14:16:20.069Z,68.48
2017-09-11T14:18:48.383Z,68.31
2017-09-11T14:21:16.725Z,67.36
2017-09-11T14:23:45.011Z,67.48
2017-09-11T14:26:14.086Z,67.24
2017-09-11T14:28:42.401Z,66.69
2017-09-11T14:31:10.731Z,63.83
2017-09-11T14:33:39.038Z,64.84
2017-09-11T14:36:08.118Z,64.89
2017-09-11T14:38:36.444Z,64.76
2017-09-11T14:41:04.745Z,64.72
2017-09-11T14:43:33.054Z,64.24
2017-09-11T14:46:01.360Z,64.07
2017-09-11T14:48:29.664Z,62.71
2017-09-11T14:50:57.966Z,61.57
2017-09-11T14:53:26.274Z,62.49
2017-09-11T14:55:55.336Z,60.52
2017-09-11T14:58:23.675Z,60.98
2017-09-11T15:00:51.974Z,58.38
2017-09-11T15:03:20.274Z,58.84
2017-09-11T15:05:48.589Z,57.96
2017-09-11T15:08:17.663Z,58.38
2017-09-11T15:10:45.979Z,57.86
2017-09-11T15:13:14.278Z,56.79
2017-09-11T15:15:42.594Z,54.57
2017-09-11T15:18:10.890Z,52.44
2017-09-11T15:20:39.974Z,54.64
2017-09-11T15:23:09.043Z,53.93
2017-09-11T15:25:37.374Z,54.71
2017-09-11T15:28:05.726Z,54.82
2017-09-11T15:30:34.793Z,55.01
2017-09-11T15:33:03.108Z,54.90
2017-09-11T15:35:32.174Z,55.58
2017-09-11T15:38:00.483Z,55.66
2017-09-11T15:40:29.545Z,56.21
2017-09-11T15:42:57.854Z,55.78
2017-09-11T15:45:26.149Z,56.36
2017-09-11T15:47:54.494Z,55.73
2017-09-11T15:50:23.558Z,55.12
2017-09-11T15:52:52.618Z,55.46
2017-09-11T15:55:20.943Z,55.57
2017-09-11T15:57:49.237Z,55.79
2017-09-11T16:00:18.318Z,55.50
2017-09-11T16:02:46.617Z,54.77
2017-09-11T16:05:15.702Z,54.73
2017-09-11T16:07:44.770Z,55.87
2017-09-11T16:10:13.107Z,56.00
2017-09-11T16:12:41.428Z,56.14
2017-09-11T16:15:09.732Z,56.46
2017-09-11T16:17:38.816Z,57.30
2017-09-11T16:20:07.117Z,57.21
2017-09-11T16:22:35.439Z,57.51
2017-09-11T16:25:03.751Z,57.85
2017-09-11T16:27:32.058Z,58.27
2017-09-11T16:30:00.354Z,58.61
2017-09-11T16:32:28.682Z,58.77
2017-09-11T16:34:56.985Z,59.45
2017-09-11T16:37:26.053Z,60.07
2017-09-11T16:39:54.362Z,60.25
2017-09-11T16:42:22.657Z,61.02
2017-09-11T16:44:50.971Z,61.59
2017-09-11T16:47:19.275Z,61.94
2017-09-11T16:49:48.354Z,61.96
2017-09-11T16:52:16.646Z,61.67
2017-09-11T16:54:45.746Z,62.72
2017-09-11T16:57:14.820Z,63.11
2017-09-11T16:59:43.139Z,63.82
2017-09-11T17:02:11.453Z,64.38
2017-09-11T17:04:39.754Z,64.38
2017-09-11T17:07:08.061Z,64.48
2017-09-11T17:09:36.366Z,64.47
2017-09-11T17:12:04.681Z,64.63
2017-09-11T17:14:32.982Z,64.68
2017-09-11T17:17:02.052Z,64.91
2017-09-11T17:19:30.351Z,65.28
2017-09-11T17:21:59.450Z,66.11
2017-09-11T17:24:28.519Z,66.83
2017-09-11T17:26:56.821Z,66.96
2017-09-11T17:29:25.892Z,67.45
2017-09-11T17:31:54.186Z,67.78
2017-09-11T17:34:23.262Z,68.04
2017-09-11T17:36:51.562Z,68.20
2017-09-11T17:39:20.646Z,68.50
2017-09-11T17:41:48.950Z,69.06
2017-09-11T17:44:17.265Z,69.36
2017-09-11T17:46:45.563Z,69.89
2017-09-11T17:49:13.894Z,70.46
2017-09-11T17:51:42.186Z,70.84
2017-09-11T17:54:10.492Z,71.09
2017-09-11T17:56:38.804Z,71.19
2017-09-11T17:59:07.882Z,71.59
2017-09-11T18:01:36.185Z,71.89
2017-09-11T18:04:04.481Z,72.14
2017-09-11T18:06:33.061Z,71.99
2017-09-11T18:09:01.364Z,72.27
2017-09-11T18:11:29.669Z,72.61
2017-09-11T18:13:57.965Z,73.19
2017-09-11T18:16:27.070Z,73.44
2017-09-11T18:18:55.405Z,73.40
2017-09-11T18:21:23.697Z,73.55
2017-09-11T18:23:52.022Z,73.67
2017-09-11T18:26:20.318Z,73.94
2017-09-11T18:28:48.627Z,74.23
2017-09-11T18:31:16.922Z,74.80
2017-09-11T18:33:45.994Z,74.96
2017-09-11T18:36:14.290Z,75.64
2017-09-11T18:38:43.418Z,76.16
2017-09-11T18:41:11.714Z,76.56
2017-09-11T18:43:40.043Z,76.45
2017-09-11T18:46:09.112Z,76.91
2017-09-11T18:48:37.406Z,77.25
2017-09-11T18:51:06.483Z,77.54
2017-09-11T18:53:34.779Z,77.59
2017-09-11T18:56:03.855Z,77.93
2017-09-11T18:58:32.177Z,78.53
2017-09-11T19:01:00.479Z,79.07
2017-09-11T19:03:28.777Z,79.43
2017-09-11T19:05:57.091Z,79.39
2017-09-11T19:08:26.150Z,79.59
2017-09-11T19:10:54.458Z,79.92
2017-09-11T19:13:23.528Z,80.29
2017-09-11T19:15:51.845Z,80.42
2017-09-11T19:18:20.166Z,80.44
2017-09-11T19:20:48.461Z,80.39
2017-09-11T19:23:16.766Z,80.44
2017-09-11T19:25:45.825Z,80.38
2017-09-11T19:28:14.130Z,80.94
2017-09-11T19:30:43.210Z,80.87
2017-09-11T19:33:11.529Z,80.92
2017-09-11T19:35:39.827Z,80.44
2017-09-11T19:38:08.153Z,80.19
2017-09-11T19:40:37.218Z,80.54
2017-09-11T19:43:05.522Z,80.49
2017-09-11T19:45:34.602Z,80.69
2017-09-11T19:48:02.898Z,80.41
2017-09-11T19:50:31.205Z,80.44
2017-09-11T19:52:59.502Z,80.63
2017-09-11T19:55:27.821Z,80.69
2017-09-11T19:57:56.122Z,80.49
2017-09-11T20:00:24.430Z,80.43
2017-09-11T20:02:52.734Z,80.32
2017-09-11T20:05:21.034Z,80.10
2017-09-11T20:07:49.352Z,79.93
2017-09-11T20:10:17.654Z,79.85
2017-09-11T20:12:45.958Z,79.56
2017-09-11T20:15:14.258Z,79.38
2017-09-11T20:17:43.315Z,79.31
2017-09-11T20:20:12.394Z,79.22
2017-09-11T20:22:40.699Z,78.91
2017-09-11T20:25:09.005Z,78.77
2017-09-11T20:27:37.316Z,78.86
2017-09-11T20:30:05.626Z,79.02
2017-09-11T20:32:33.922Z,79.06
2017-09-11T20:35:02.994Z,79.04
2017-09-11T20:37:31.294Z,79.17
2017-09-11T20:40:00.361Z,79.69
2017-09-11T20:42:28.666Z,79.78
2017-09-11T20:44:57.757Z,79.90
2017-09-11T20:47:26.818Z,79.90
2017-09-11T20:49:55.123Z,80.18
2017-09-11T20:52:23.438Z,80.27
2017-09-11T20:54:51.736Z,80.53
2017-09-11T20:57:20.042Z,80.70
2017-09-11T20:59:48.334Z,80.98
2017-09-11T21:02:16.640Z,80.62
2017-09-11T21:04:44.934Z,80.52
2017-09-11T21:07:13.246Z,80.75
2017-09-11T21:09:41.537Z,80.83
2017-09-11T21:12:09.864Z,80.45
2017-09-11T21:14:38.167Z,80.67
2017-09-11T21:17:06.463Z,80.79
2017-09-11T21:19:34.775Z,80.98
2017-09-11T21:22:03.074Z,81.03
2017-09-11T21:24:31.396Z,81.20
2017-09-11T21:26:59.726Z,81.54
2017-09-11T21:29:28.034Z,81.89
2017-09-11T21:31:56.326Z,81.94
2017-09-11T21:34:24.634Z,82.25
2017-09-11T21:36:53.706Z,82.32
2017-09-11T21:39:22.025Z,82.58
2017-09-11T21:41:50.326Z,82.51
2017-09-11T21:44:18.650Z,82.32
2017-09-11T21:46:47.715Z,81.98
2017-09-11T21:49:16.014Z,81.77
2017-09-11T21:51:44.323Z,81.71
2017-09-11T21:54:12.634Z,81.37
2017-09-11T21:56:40.936Z,81.36
2017-09-11T21:59:09.242Z,81.50
2017-09-11T22:01:37.554Z,81.24
2017-09-11T22:04:05.855Z,81.11
2017-09-11T22:06:34.168Z,81.02
2017-09-11T22:09:03.240Z,80.90
2017-09-11T22:11:31.573Z,81.30
2017-09-11T22:13:59.877Z,81.60
2017-09-11T22:16:28.170Z,81.53
2017-09-11T22:18:56.469Z,81.45
2017-09-11T22:21:25.526Z,81.34
2017-09-11T22:23:53.838Z,80.79
2017-09-11T22:26:22.907Z,80.86
2017-09-11T22:28:51.210Z,80.83
2017-09-11T22:31:20.266Z,80.66
2017-09-11T22:33:48.590Z,80.81
2017-09-11T22:36:17.645Z,80.71
2017-09-11T22:38:45.937Z,80.59
2017-09-11T22:41:14.248Z,80.50
2017-09-11T22:43:42.546Z,80.48
2017-09-11T22:46:10.848Z,80.15
2017-09-11T22:48:39.157Z,80.49
2017-09-11T22:51:08.225Z,80.40
2017-09-11T22:53:36.522Z,79.93
2017-09-11T22:56:05.661Z,79.74
2017-09-11T22:58:33.955Z,79.75
2017-09-11T23:01:02.270Z,79.83
2017-09-11T23:03:31.342Z,79.82
2017-09-11T23:05:59.639Z,79.86
2017-09-11T23:08:27.951Z,79.89
2017-09-11T23:10:56.248Z,79.72
2017-09-11T23:13:24.550Z,79.78
2017-09-11T23:15:52.846Z,79.77
2017-09-11T23:18:21.162Z,80.18
2017-09-11T23:20:49.449Z,80.15
2017-09-11T23:23:17.752Z,80.32
2017-09-11T23:25:46.053Z,80.20
2017-09-11T23:28:14.356Z,80.35
2017-09-11T23:30:43.411Z,80.29
2017-09-11T23:33:11.721Z,80.32
2017-09-11T23:35:40.802Z,80.36
2017-09-11T23:38:09.097Z,80.30
2017-09-11T23:40:38.165Z,80.62
2017-09-11T23:43:06.462Z,80.69
2017-09-11T23:45:35.527Z,80.73
2017-09-11T23:48:03.867Z,80.53
2017-09-11T23:50:32.165Z,80.03
2017-09-11T23:53:00.452Z,80.20
2017-09-11T23:55:28.754Z,80.67
2017-09-11T23:57:57.054Z,80.71
